Time;durP1;ratioP1;P1;durP2;ratioP2;P2;SDS_P1;SDS_P2;PMS_P1;PMS_P2;Temp;Humidity;BMP_temperature;BMP_pressure;BME280_temperature;BME280_humidity;BME280_pressure;Samples;Min_cycle;Max_cycle;Signal;HPM_P1;HPM_P2
2023/10/11 00:02:06;;;;;;;43.88;10.73;;;;;;;;;;6082792;23;20133;-64
2023/10/11 00:04:53;;;;;;;40.85;11.60;;;;;;;;;;6081635;23;20030;-65
2023/10/11 00:07:47;;;;;;;50.40;12.90;;;;;;;;;;6080424;23;20030;-65
2023/10/11 00:10:34;;;;;;;37.30;11.30;;;;;;;;;;6082133;23;20082;-65
2023/10/11 00:13:32;;;;;;;46.63;12.65;;;;;;;;;;6082701;23;20026;-63
2023/10/11 00:16:17;;;;;;;47.33;12.57;;;;;;;;;;6082450;23;20555;-50
2023/10/11 00:19:15;;;;;;;44.30;11.52;;;;;;;;;;6081966;23;20077;-53
2023/10/11 00:21:58;;;;;;;36.53;11.00;;;;;;;;;;6082375;23;20030;-52
2023/10/11 00:24:51;;;;;;;35.45;11.35;;;;;;;;;;6083067;23;20109;-50
2023/10/11 00:27:39;;;;;;;35.58;11.63;;;;;;;;;;6080608;23;20493;-50
2023/10/11 00:30:38;;;;;;;51.55;12.40;;;;;;;;;;6081419;23;20634;-59
2023/10/11 00:33:23;;;;;;;48.80;11.45;;;;;;;;;;6081638;23;20054;-50
2023/10/11 00:36:29;;;;;;;50.03;12.57;;;;;;;;;;6082233;23;20444;-51
2023/10/11 00:39:17;;;;;;;45.38;12.15;;;;;;;;;;6077685;23;20033;-45
2023/10/11 00:42:05;;;;;;;53.85;13.90;;;;;;;;;;6081134;23;20527;-51
2023/10/11 00:45:02;;;;;;;46.08;13.38;;;;;;;;;;6081917;23;20027;-47
2023/10/11 00:47:46;;;;;;;47.05;13.75;;;;;;;;;;6082345;23;20022;-49
2023/10/11 00:50:40;;;;;;;47.78;12.88;;;;;;;;;;6082666;23;20726;-66
2023/10/11 00:53:34;;;;;;;53.08;12.18;;;;;;;;;;6081143;23;20022;-60
2023/10/11 00:56:35;;;;;;;45.67;12.45;;;;;;;;;;6082771;23;20023;-60
2023/10/11 00:59:22;;;;;;;50.03;12.00;;;;;;;;;;6080126;23;20096;-61
2023/10/11 01:02:16;;;;;;;44.88;11.95;;;;;;;;;;6078986;23;20061;-61
2023/10/11 01:05:06;;;;;;;52.40;13.60;;;;;;;;;;6079583;23;20022;-61
2023/10/11 01:07:58;;;;;;;47.17;12.32;;;;;;;;;;6081294;23;20034;-65
2023/10/11 01:10:45;;;;;;;45.65;11.10;;;;;;;;;;6081303;23;20026;-51
2023/10/11 01:13:57;;;;;;;39.20;11.25;;;;;;;;;;6080299;23;20458;-52
2023/10/11 01:16:35;;;;;;;49.70;11.98;;;;;;;;;;6081040;23;20821;-53
2023/10/11 01:19:29;;;;;;;36.95;10.75;;;;;;;;;;6079208;23;20078;-49
2023/10/11 01:22:17;;;;;;;39.58;10.60;;;;;;;;;;6079498;23;20030;-52
2023/10/11 01:25:20;;;;;;;50.58;11.50;;;;;;;;;;6079205;23;20034;-51
2023/10/11 01:28:07;;;;;;;45.90;10.55;;;;;;;;;;6080596;23;20567;-47
2023/10/11 01:31:08;;;;;;;40.15;9.90;;;;;;;;;;6078271;23;20342;-64
2023/10/11 01:33:55;;;;;;;41.65;11.57;;;;;;;;;;6079544;23;20033;-63
2023/10/11 01:36:51;;;;;;;40.10;10.65;;;;;;;;;;6082120;23;20036;-63
2023/10/11 01:39:43;;;;;;;45.42;10.68;;;;;;;;;;6081707;23;20081;-63
2023/10/11 01:42:40;;;;;;;35.20;9.68;;;;;;;;;;6079747;23;20535;-63
2023/10/11 01:45:25;;;;;;;36.35;11.43;;;;;;;;;;6079633;23;20029;-58
2023/10/11 01:48:19;;;;;;;37.05;11.30;;;;;;;;;;6080523;23;20031;-64
2023/10/11 01:51:08;;;;;;;43.08;11.73;;;;;;;;;;6082108;23;20026;-63
2023/10/11 01:54:07;;;;;;;40.92;11.20;;;;;;;;;;6081667;23;20117;-63
2023/10/11 01:57:04;;;;;;;40.47;10.80;;;;;;;;;;6082859;23;20022;-63
2023/10/11 01:59:58;;;;;;;48.85;12.15;;;;;;;;;;6082347;23;20027;-63
2023/10/11 02:02:55;;;;;;;36.75;11.52;;;;;;;;;;6082320;23;20027;-58
2023/10/11 02:05:49;;;;;;;40.30;10.57;;;;;;;;;;6081679;23;20058;-59
2023/10/11 02:08:36;;;;;;;43.60;11.55;;;;;;;;;;6081686;23;20113;-59
2023/10/11 02:11:30;;;;;;;48.08;12.30;;;;;;;;;;6080034;23;20058;-59
2023/10/11 02:14:24;;;;;;;48.95;11.45;;;;;;;;;;6080075;23;20109;-60
2023/10/11 02:17:13;;;;;;;53.55;13.45;;;;;;;;;;6083195;23;20018;-59
2023/10/11 02:20:20;;;;;;;40.17;11.88;;;;;;;;;;6080179;23;20578;-59
2023/10/11 02:22:55;;;;;;;43.50;12.05;;;;;;;;;;6081530;23;20030;-59
2023/10/11 02:25:49;;;;;;;46.42;12.00;;;;;;;;;;6080894;23;20022;-58
2023/10/11 02:28:39;;;;;;;38.53;11.73;;;;;;;;;;6081362;23;20030;-59
2023/10/11 02:31:33;;;;;;;46.28;13.30;;;;;;;;;;6079746;23;20030;-59
2023/10/11 02:34:18;;;;;;;44.15;13.10;;;;;;;;;;6080127;23;20095;-58
2023/10/11 02:37:11;;;;;;;49.95;14.27;;;;;;;;;;6079718;23;20026;-58
2023/10/11 02:39:59;;;;;;;43.80;12.50;;;;;;;;;;6081204;23;20558;-59
2023/10/11 02:42:56;;;;;;;45.90;12.85;;;;;;;;;;6082026;23;20026;-59
2023/10/11 02:45:43;;;;;;;52.95;13.68;;;;;;;;;;6081166;23;20026;-59
2023/10/11 02:48:37;;;;;;;46.85;13.82;;;;;;;;;;6080540;23;20133;-59
2023/10/11 02:51:25;;;;;;;48.45;12.70;;;;;;;;;;6081133;23;20093;-59
2023/10/11 02:54:34;;;;;;;39.83;12.43;;;;;;;;;;6081531;23;20085;-59
2023/10/11 02:57:25;;;;;;;50.38;13.80;;;;;;;;;;6082054;23;20030;-51
2023/10/11 03:00:22;;;;;;;58.25;14.55;;;;;;;;;;6081157;23;20312;-51
2023/10/11 03:03:16;;;;;;;47.97;14.27;;;;;;;;;;6081589;23;20049;-52
2023/10/11 03:06:07;;;;;;;52.17;14.70;;;;;;;;;;6081191;23;20081;-50
2023/10/11 03:08:57;;;;;;;52.90;15.18;;;;;;;;;;6081986;23;20038;-48
2023/10/11 03:11:45;;;;;;;43.00;14.97;;;;;;;;;;6079535;23;20105;-52
2023/10/11 03:14:47;;;;;;;44.20;15.23;;;;;;;;;;6080307;23;20848;-50
2023/10/11 03:17:40;;;;;;;41.38;14.18;;;;;;;;;;6079183;23;20353;-48
2023/10/11 03:20:29;;;;;;;40.78;14.27;;;;;;;;;;6079209;23;20654;-61
2023/10/11 03:23:25;;;;;;;52.78;15.98;;;;;;;;;;6081011;23;20105;-61
2023/10/11 03:26:17;;;;;;;50.45;15.00;;;;;;;;;;6080540;23;20022;-62
2023/10/11 03:29:04;;;;;;;47.92;15.88;;;;;;;;;;6079068;23;20539;-61
2023/10/11 03:31:58;;;;;;;44.53;14.65;;;;;;;;;;6081690;23;20574;-61
2023/10/11 03:34:46;;;;;;;43.08;14.10;;;;;;;;;;6080762;23;20038;-61
2023/10/11 03:37:40;;;;;;;61.70;16.30;;;;;;;;;;6081631;23;20030;-58
2023/10/11 03:40:54;;;;;;;41.67;14.40;;;;;;;;;;6080993;23;20089;-59
2023/10/11 03:43:26;;;;;;;41.67;13.57;;;;;;;;;;6080723;23;20375;-59
2023/10/11 03:46:15;;;;;;;42.25;15.15;;;;;;;;;;6079871;23;20093;-59
2023/10/11 03:51:48;;;;;;;44.35;13.68;;;;;;;;;;6081536;23;20030;-59
2023/10/11 03:54:47;;;;;;;48.03;14.93;;;;;;;;;;6079936;23;20027;-59
2023/10/11 03:57:35;;;;;;;43.72;14.52;;;;;;;;;;6080235;23;20029;-63
2023/10/11 04:00:29;;;;;;;47.65;14.52;;;;;;;;;;6080349;23;20356;-63
2023/10/11 04:03:17;;;;;;;47.55;15.15;;;;;;;;;;6080438;23;20113;-63
2023/10/11 04:06:19;;;;;;;57.38;15.98;;;;;;;;;;6080185;23;20023;-63
2023/10/11 04:09:04;;;;;;;63.17;16.65;;;;;;;;;;6081241;23;20026;-63
2023/10/11 04:12:05;;;;;;;51.72;17.08;;;;;;;;;;6081636;23;20027;-52
2023/10/11 04:14:57;;;;;;;56.60;17.17;;;;;;;;;;6081133;23;20197;-49
2023/10/11 04:17:49;;;;;;;59.65;16.05;;;;;;;;;;6081110;23;20121;-49
2023/10/11 04:20:34;;;;;;;55.58;17.00;;;;;;;;;;6078694;23;20026;-48
2023/10/11 04:23:28;;;;;;;56.83;16.88;;;;;;;;;;6081010;23;20026;-48
2023/10/11 04:26:35;;;;;;;63.15;18.02;;;;;;;;;;6078448;23;20606;-51
2023/10/11 04:29:23;;;;;;;61.88;17.15;;;;;;;;;;6080560;23;20026;-59
2023/10/11 04:32:19;;;;;;;57.90;16.13;;;;;;;;;;6081368;23;20065;-50
2023/10/11 04:35:36;;;;;;;53.88;16.10;;;;;;;;;;6080848;23;20034;-60
2023/10/11 04:38:11;;;;;;;55.78;16.80;;;;;;;;;;6079017;23;20023;-60
2023/10/11 04:41:14;;;;;;;51.08;16.65;;;;;;;;;;6080764;23;20030;-59
2023/10/11 04:44:04;;;;;;;55.80;17.48;;;;;;;;;;6075289;23;20030;-60
2023/10/11 04:46:57;;;;;;;50.33;16.42;;;;;;;;;;6076149;23;20471;-60
2023/10/11 04:49:45;;;;;;;53.97;16.38;;;;;;;;;;6077897;23;20023;-48
2023/10/11 04:52:39;;;;;;;55.85;15.45;;;;;;;;;;6080581;23;20310;-61
2023/10/11 04:55:35;;;;;;;54.28;16.13;;;;;;;;;;6076271;23;20109;-61
2023/10/11 04:58:41;;;;;;;52.50;16.65;;;;;;;;;;6078520;23;20018;-61
2023/10/11 05:01:40;;;;;;;44.67;14.52;;;;;;;;;;6080799;23;20026;-61
2023/10/11 05:04:27;;;;;;;56.78;15.73;;;;;;;;;;6081498;23;20026;-61
2023/10/11 05:07:19;;;;;;;47.58;14.55;;;;;;;;;;6080914;23;20480;-59
2023/10/11 05:10:30;;;;;;;50.53;16.63;;;;;;;;;;6080303;23;20543;-64
2023/10/11 05:13:13;;;;;;;54.33;15.57;;;;;;;;;;6080552;23;20109;-64
2023/10/11 05:16:06;;;;;;;52.80;14.90;;;;;;;;;;6081188;23;20023;-64
2023/10/11 05:18:48;;;;;;;46.28;13.85;;;;;;;;;;6084347;23;20030;-63
2023/10/11 05:21:43;;;;;;;44.50;14.70;;;;;;;;;;6083770;23;20062;-63
2023/10/11 05:24:54;;;;;;;44.22;14.38;;;;;;;;;;6083284;23;20085;-63
2023/10/11 05:27:47;;;;;;;46.13;12.98;;;;;;;;;;6082478;23;20022;-59
2023/10/11 05:52:30;;;;;;;33.53;10.88;;;;;;;;;;6083494;23;20022;-48
2023/10/11 05:55:30;;;;;;;36.30;10.23;;;;;;;;;;6083778;23;20085;-47
2023/10/11 05:58:19;;;;;;;38.28;10.77;;;;;;;;;;6082781;23;20040;-50
2023/10/11 06:01:13;;;;;;;39.97;10.65;;;;;;;;;;6081937;23;20022;-58
2023/10/11 06:04:03;;;;;;;34.65;9.77;;;;;;;;;;6083622;23;20756;-66
2023/10/11 06:06:58;;;;;;;33.28;10.00;;;;;;;;;;6083899;23;20023;-63
2023/10/11 06:09:46;;;;;;;41.67;12.38;;;;;;;;;;6084166;23;20029;-63
2023/10/11 06:12:40;;;;;;;34.30;11.15;;;;;;;;;;6083761;23;20078;-62
2023/10/11 06:15:27;;;;;;;35.33;9.82;;;;;;;;;;6082365;23;20234;-63
2023/10/11 06:18:39;;;;;;;39.35;11.32;;;;;;;;;;6082872;23;20029;-62
2023/10/11 06:21:33;;;;;;;36.95;9.32;;;;;;;;;;6081437;23;20062;-67
2023/10/11 06:24:32;;;;;;;36.22;10.30;;;;;;;;;;6082332;23;20018;-65
2023/10/11 06:30:32;;;;;;;38.28;9.73;;;;;;;;;;6020000;23;20075;-66
2023/10/11 06:33:25;;;;;;;36.38;10.57;;;;;;;;;;6021327;23;20933;-66
2023/10/11 06:36:16;;;;;;;32.03;9.32;;;;;;;;;;6072672;23;20022;-66
2023/10/11 06:39:29;;;;;;;30.48;8.60;;;;;;;;;;6082339;23;20034;-48
2023/10/11 06:41:53;;;;;;;34.83;9.70;;;;;;;;;;6083026;23;20019;-49
2023/10/11 06:44:47;;;;;;;26.83;8.70;;;;;;;;;;6083290;23;20097;-51
2023/10/11 06:47:35;;;;;;;36.20;10.40;;;;;;;;;;6083811;23;20388;-52
2023/10/11 06:50:35;;;;;;;28.65;9.45;;;;;;;;;;6083080;23;20646;-54
2023/10/11 06:53:17;;;;;;;28.95;8.95;;;;;;;;;;6081712;23;20092;-50
2023/10/11 06:56:17;;;;;;;37.40;9.15;;;;;;;;;;6082719;23;20022;-52
2023/10/11 06:59:04;;;;;;;50.63;10.73;;;;;;;;;;6082496;23;20022;-61
2023/10/11 07:01:59;;;;;;;30.13;9.45;;;;;;;;;;6082655;23;20023;-52
2023/10/11 07:04:50;;;;;;;34.53;10.30;;;;;;;;;;6083374;23;20367;-51
2023/10/11 07:07:39;;;;;;;33.90;9.27;;;;;;;;;;6081195;23;20197;-52
2023/10/11 07:10:32;;;;;;;35.88;10.05;;;;;;;;;;6081097;23;20123;-52
2023/10/11 07:13:29;;;;;;;40.22;10.23;;;;;;;;;;6081427;23;20089;-54
2023/10/11 07:16:20;;;;;;;24.25;7.43;;;;;;;;;;6081392;23;20034;-66
2023/10/11 07:19:09;;;;;;;37.20;8.30;;;;;;;;;;6083394;23;20061;-48
2023/10/11 07:22:02;;;;;;;31.75;8.10;;;;;;;;;;6081974;23;20094;-49
2023/10/11 07:24:55;;;;;;;42.70;9.63;;;;;;;;;;6083483;23;20578;-51
2023/10/11 07:27:41;;;;;;;30.85;8.15;;;;;;;;;;6081548;23;20026;-46
2023/10/11 07:30:37;;;;;;;31.63;8.88;;;;;;;;;;6082037;23;20034;-50
2023/10/11 07:33:22;;;;;;;26.85;7.10;;;;;;;;;;6080962;23;20022;-58
2023/10/11 07:36:11;;;;;;;37.17;9.55;;;;;;;;;;6082193;23;20026;-58
2023/10/11 07:39:20;;;;;;;31.48;9.23;;;;;;;;;;6083415;23;20062;-58
2023/10/11 07:42:18;;;;;;;32.33;9.13;;;;;;;;;;6081271;23;20032;-59
2023/10/11 07:45:07;;;;;;;33.35;8.55;;;;;;;;;;6081752;23;20492;-58
2023/10/11 07:47:55;;;;;;;28.33;7.90;;;;;;;;;;6081858;23;20538;-58
2023/10/11 07:50:46;;;;;;;29.10;7.13;;;;;;;;;;6082927;23;20022;-59
2023/10/11 07:53:47;;;;;;;30.95;7.53;;;;;;;;;;6080905;23;20497;-61
2023/10/11 07:56:43;;;;;;;42.65;8.52;;;;;;;;;;6052998;23;20029;-59
2023/10/11 07:59:39;;;;;;;37.47;8.50;;;;;;;;;;6052494;23;20027;-58
2023/10/11 08:02:29;;;;;;;43.63;9.18;;;;;;;;;;6052132;23;20030;-58
2023/10/11 08:05:21;;;;;;;33.03;8.55;;;;;;;;;;6051591;23;20035;-59
2023/10/11 08:08:10;;;;;;;29.40;8.13;;;;;;;;;;6053638;23;20023;-59
2023/10/11 08:11:06;;;;;;;31.15;8.23;;;;;;;;;;6053009;23;20548;-61
2023/10/11 08:13:49;;;;;;;30.90;7.50;;;;;;;;;;6053598;23;20536;-63
2023/10/11 08:16:47;;;;;;;35.10;8.73;;;;;;;;;;6052422;23;20026;-63
2023/10/11 08:19:30;;;;;;;39.03;8.75;;;;;;;;;;6052968;23;20473;-62
2023/10/11 08:22:23;;;;;;;41.30;9.07;;;;;;;;;;6051543;23;20054;-63
2023/10/11 08:25:12;;;;;;;33.85;9.75;;;;;;;;;;6054663;23;20027;-62
2023/10/11 08:28:19;;;;;;;36.50;8.75;;;;;;;;;;6052569;23;20409;-49
2023/10/11 08:30:56;;;;;;;25.55;7.18;;;;;;;;;;6051818;23;20175;-60
2023/10/11 08:34:00;;;;;;;39.85;8.32;;;;;;;;;;6054449;23;20298;-60
2023/10/11 08:36:55;;;;;;;24.05;7.35;;;;;;;;;;6051755;23;20086;-60
2023/10/11 08:39:50;;;;;;;27.52;7.45;;;;;;;;;;6054542;23;20027;-60
2023/10/11 08:42:36;;;;;;;22.40;6.10;;;;;;;;;;6052146;23;20583;-61
2023/10/11 08:45:33;;;;;;;22.05;5.57;;;;;;;;;;6052348;23;20097;-60
2023/10/11 08:48:18;;;;;;;18.90;4.88;;;;;;;;;;6053895;23;20477;-58
2023/10/11 08:51:13;;;;;;;26.73;4.78;;;;;;;;;;6053182;23;20030;-59
2023/10/11 08:54:00;;;;;;;23.23;4.00;;;;;;;;;;6056968;23;20035;-59
2023/10/11 08:57:03;;;;;;;28.13;5.25;;;;;;;;;;6082046;23;21244;-58
2023/10/11 08:59:49;;;;;;;11.70;2.88;;;;;;;;;;6081024;23;20570;-59
2023/10/11 09:02:48;;;;;;;18.73;3.35;;;;;;;;;;6080908;23;20620;-59
2023/10/11 09:05:43;;;;;;;16.67;2.55;;;;;;;;;;6081830;23;20408;-63
2023/10/11 09:08:37;;;;;;;10.82;2.80;;;;;;;;;;6081103;23;20027;-58
2023/10/11 09:11:33;;;;;;;15.88;2.88;;;;;;;;;;6081775;23;20034;-57
2023/10/11 09:14:28;;;;;;;12.68;2.53;;;;;;;;;;6081008;23;20360;-58
2023/10/11 09:17:22;;;;;;;13.63;2.58;;;;;;;;;;6081820;23;20030;-57
2023/10/11 09:20:23;;;;;;;16.27;2.28;;;;;;;;;;6080264;23;20081;-57
2023/10/11 09:23:23;;;;;;;9.07;1.92;;;;;;;;;;6081489;23;20027;-62
2023/10/11 09:26:12;;;;;;;16.20;2.53;;;;;;;;;;6081140;23;20093;-48
2023/10/11 09:29:07;;;;;;;13.55;2.00;;;;;;;;;;6091362;23;20031;-57
2023/10/11 09:31:58;;;;;;;12.48;1.98;;;;;;;;;;6080938;23;20208;-58
2023/10/11 09:34:51;;;;;;;12.55;2.08;;;;;;;;;;6081583;23;20026;-57
2023/10/11 09:37:38;;;;;;;9.93;1.98;;;;;;;;;;6081417;23;20476;-58
2023/10/11 09:40:34;;;;;;;14.82;2.20;;;;;;;;;;6082387;23;20027;-59
2023/10/11 09:43:19;;;;;;;12.57;1.98;;;;;;;;;;6081473;23;20026;-58
2023/10/11 09:46:14;;;;;;;8.82;1.95;;;;;;;;;;6081453;23;20026;-59
2023/10/11 09:49:03;;;;;;;18.23;2.35;;;;;;;;;;6082796;23;20031;-59
2023/10/11 09:52:07;;;;;;;15.57;3.55;;;;;;;;;;6081130;23;20026;-57
2023/10/11 09:54:56;;;;;;;7.50;1.50;;;;;;;;;;6081178;23;20023;-57
2023/10/11 09:57:57;;;;;;;8.50;1.70;;;;;;;;;;6079732;23;20026;-58
2023/10/11 10:01:10;;;;;;;5.07;1.00;;;;;;;;;;6079911;23;20030;-50
2023/10/11 10:04:06;;;;;;;9.15;1.15;;;;;;;;;;6081499;23;20729;-57
2023/10/11 10:07:32;;;;;;;9.55;1.30;;;;;;;;;;6082077;23;20094;-58
2023/10/11 10:10:25;;;;;;;7.50;1.45;;;;;;;;;;6083822;23;20109;-58
2023/10/11 10:13:13;;;;;;;12.48;1.70;;;;;;;;;;6082469;23;20085;-58
2023/10/11 10:16:06;;;;;;;13.10;1.90;;;;;;;;;;6083475;23;20030;-58
2023/10/11 10:19:15;;;;;;;12.13;1.77;;;;;;;;;;6083139;23;20034;-66
2023/10/11 10:22:31;;;;;;;9.82;1.42;;;;;;;;;;6083750;23;20027;-62
2023/10/11 10:25:22;;;;;;;11.45;1.48;;;;;;;;;;6082680;23;20041;-62
2023/10/11 10:28:34;;;;;;;12.18;1.67;;;;;;;;;;6082935;23;20026;-62
2023/10/11 10:31:28;;;;;;;10.00;1.75;;;;;;;;;;6081638;23;20030;-62
2023/10/11 10:34:16;;;;;;;5.93;1.67;;;;;;;;;;6083032;23;20026;-62
2023/10/11 10:37:09;;;;;;;6.55;1.50;;;;;;;;;;6082523;23;20034;-65
2023/10/11 10:40:24;;;;;;;10.48;1.58;;;;;;;;;;6083372;23;20058;-47
2023/10/11 10:43:23;;;;;;;6.65;2.15;;;;;;;;;;6081732;23;20031;-50
2023/10/11 10:46:09;;;;;;;10.07;1.75;;;;;;;;;;6082765;23;20027;-51
2023/10/11 10:49:03;;;;;;;12.77;1.85;;;;;;;;;;6082624;23;20026;-52
2023/10/11 10:51:53;;;;;;;10.60;2.05;;;;;;;;;;6082315;23;20025;-50
2023/10/11 10:55:07;;;;;;;12.02;2.28;;;;;;;;;;6082298;23;20027;-47
2023/10/11 10:57:55;;;;;;;13.02;1.95;;;;;;;;;;6081713;23;20030;-50
2023/10/11 11:00:54;;;;;;;10.13;2.28;;;;;;;;;;6082226;23;20022;-59
2023/10/11 11:03:41;;;;;;;15.50;2.53;;;;;;;;;;6083636;23;20033;-59
2023/10/11 11:06:38;;;;;;;13.75;2.80;;;;;;;;;;6082280;23;20389;-60
2023/10/11 11:09:25;;;;;;;12.35;2.67;;;;;;;;;;6083622;23;20033;-59
2023/10/11 11:12:20;;;;;;;17.52;3.60;;;;;;;;;;6081454;23;20042;-60
2023/10/11 11:15:09;;;;;;;16.17;2.50;;;;;;;;;;6082907;23;20056;-64
2023/10/11 11:18:02;;;;;;;12.85;2.95;;;;;;;;;;6081725;23;20026;-49
2023/10/11 11:20:51;;;;;;;13.57;2.60;;;;;;;;;;6083686;23;20030;-50
2023/10/11 11:23:44;;;;;;;18.52;3.00;;;;;;;;;;6082958;23;20531;-47
2023/10/11 11:26:31;;;;;;;19.98;3.28;;;;;;;;;;6081324;23;20097;-51
2023/10/11 11:29:31;;;;;;;19.33;3.58;;;;;;;;;;6082658;23;20026;-50
2023/10/11 11:32:19;;;;;;;13.45;3.25;;;;;;;;;;6081767;23;20066;-59
2023/10/11 11:35:28;;;;;;;20.77;4.10;;;;;;;;;;6080828;23;20333;-64
2023/10/11 11:38:05;;;;;;;25.27;4.40;;;;;;;;;;6081276;23;20062;-63
2023/10/11 11:41:04;;;;;;;28.27;4.75;;;;;;;;;;6080986;23;20026;-64
2023/10/11 11:43:48;;;;;;;22.05;3.75;;;;;;;;;;6084982;23;20026;-63
2023/10/11 11:46:41;;;;;;;26.67;4.30;;;;;;;;;;6081324;23;20029;-64
2023/10/11 11:49:29;;;;;;;17.50;4.53;;;;;;;;;;6082726;23;20114;-64
2023/10/11 11:52:24;;;;;;;21.10;4.47;;;;;;;;;;6082664;23;20400;-59
2023/10/11 11:55:23;;;;;;;24.70;3.53;;;;;;;;;;6082208;23;20026;-61
2023/10/11 11:58:17;;;;;;;31.65;5.00;;;;;;;;;;6081005;23;20095;-61
2023/10/11 12:01:15;;;;;;;33.50;6.03;;;;;;;;;;6082638;23;20026;-62
2023/10/11 12:04:08;;;;;;;27.75;5.57;;;;;;;;;;6081267;23;20029;-63
2023/10/11 12:06:52;;;;;;;38.40;5.50;;;;;;;;;;6082410;23;20033;-62
2023/10/11 12:09:46;;;;;;;39.17;6.05;;;;;;;;;;6083128;23;20026;-67
2023/10/11 12:12:33;;;;;;;41.63;6.65;;;;;;;;;;6081886;23;20405;-60
2023/10/11 12:15:28;;;;;;;42.00;5.88;;;;;;;;;;6081508;23;20525;-60
2023/10/11 12:18:15;;;;;;;26.27;4.72;;;;;;;;;;6080419;23;20026;-59
2023/10/11 12:21:10;;;;;;;29.15;5.38;;;;;;;;;;6081625;23;20069;-60
2023/10/11 12:23:58;;;;;;;28.52;5.20;;;;;;;;;;6082967;23;20098;-60
2023/10/11 12:26:58;;;;;;;31.05;5.63;;;;;;;;;;6081807;23;20030;-61
2023/10/11 12:29:48;;;;;;;28.88;4.78;;;;;;;;;;6083352;23;20061;-66
2023/10/11 12:32:39;;;;;;;20.23;4.50;;;;;;;;;;6080338;23;20298;-64
2023/10/11 12:35:28;;;;;;;26.42;4.78;;;;;;;;;;6081477;23;20026;-64
2023/10/11 12:38:20;;;;;;;26.60;5.57;;;;;;;;;;6080324;23;20415;-65
2023/10/11 12:41:07;;;;;;;29.63;4.47;;;;;;;;;;6081595;23;20027;-63
2023/10/11 12:44:01;;;;;;;27.83;3.55;;;;;;;;;;6082658;23;20411;-62
2023/10/11 12:46:49;;;;;;;22.67;4.10;;;;;;;;;;6077377;23;20094;-58
2023/10/11 12:49:43;;;;;;;28.60;4.57;;;;;;;;;;6082459;23;20028;-61
2023/10/11 12:52:30;;;;;;;25.50;4.40;;;;;;;;;;6080687;23;20603;-60
2023/10/11 12:55:31;;;;;;;17.85;4.13;;;;;;;;;;6080253;23;20037;-61
2023/10/11 12:58:19;;;;;;;30.70;5.32;;;;;;;;;;6079999;23;20037;-61
2023/10/11 13:01:12;;;;;;;28.27;5.30;;;;;;;;;;6082501;23;20034;-63
2023/10/11 13:04:10;;;;;;;27.88;4.78;;;;;;;;;;6081027;23;20026;-63
2023/10/11 13:07:06;;;;;;;24.05;4.40;;;;;;;;;;6083307;23;20415;-65
2023/10/11 13:09:49;;;;;;;27.45;4.97;;;;;;;;;;6082213;23;20078;-66
2023/10/11 13:12:43;;;;;;;32.03;5.43;;;;;;;;;;6080674;23;20038;-65
2023/10/11 13:15:32;;;;;;;28.40;4.57;;;;;;;;;;6081646;23;20381;-66
2023/10/11 13:18:26;;;;;;;31.70;5.88;;;;;;;;;;6080945;23;20089;-66
2023/10/11 13:21:11;;;;;;;18.92;3.92;;;;;;;;;;6082779;23;20022;-65
2023/10/11 13:24:08;;;;;;;30.10;5.88;;;;;;;;;;6081842;23;20820;-51
2023/10/11 13:26:56;;;;;;;27.70;5.32;;;;;;;;;;6081470;23;20074;-61
2023/10/11 13:29:51;;;;;;;40.28;5.95;;;;;;;;;;6083015;23;20029;-61
2023/10/11 13:32:40;;;;;;;27.95;5.57;;;;;;;;;;6079843;23;20026;-61
2023/10/11 13:35:35;;;;;;;33.80;5.68;;;;;;;;;;6080854;23;20361;-61
2023/10/11 13:38:20;;;;;;;32.03;5.35;;;;;;;;;;6081373;23;20085;-61
2023/10/11 13:41:14;;;;;;;29.55;6.07;;;;;;;;;;6082896;23;20037;-53
2023/10/11 13:44:03;;;;;;;33.35;5.38;;;;;;;;;;6083210;23;20027;-64
2023/10/11 13:46:58;;;;;;;33.65;6.07;;;;;;;;;;6082768;23;20027;-63
2023/10/11 13:49:50;;;;;;;35.83;5.88;;;;;;;;;;6084329;23;20050;-63
2023/10/11 13:52:54;;;;;;;28.98;5.50;;;;;;;;;;6083660;23;20034;-63
2023/10/11 13:55:51;;;;;;;30.60;5.35;;;;;;;;;;6083222;23;20026;-63
2023/10/11 13:58:48;;;;;;;33.42;5.55;;;;;;;;;;6083066;23;20026;-63
2023/10/11 14:04:13;;;;;;;34.25;6.35;;;;;;;;;;6082093;23;20077;-62
2023/10/11 14:07:27;;;;;;;39.90;6.93;;;;;;;;;;6083453;23;20040;-60
2023/10/11 14:09:58;;;;;;;30.05;5.32;;;;;;;;;;6082102;23;20085;-61
2023/10/11 14:12:44;;;;;;;41.28;6.32;;;;;;;;;;6081697;23;20038;-61
2023/10/11 14:15:38;;;;;;;33.85;5.72;;;;;;;;;;6080990;23;20559;-60
2023/10/11 14:18:38;;;;;;;36.60;6.10;;;;;;;;;;6080854;23;20022;-49
2023/10/11 14:21:21;;;;;;;34.50;4.80;;;;;;;;;;6083051;23;20113;-64
2023/10/11 14:24:13;;;;;;;27.50;5.50;;;;;;;;;;6083872;23;20045;-64
2023/10/11 14:27:04;;;;;;;31.33;4.80;;;;;;;;;;6082364;23;20105;-64
2023/10/11 14:29:58;;;;;;;41.88;6.00;;;;;;;;;;6083488;23;20098;-63
2023/10/11 14:32:46;;;;;;;34.28;5.60;;;;;;;;;;6081673;23;20031;-64
2023/10/11 14:35:40;;;;;;;30.50;4.55;;;;;;;;;;6081740;23;20073;-65
2023/10/11 14:38:27;;;;;;;33.40;5.65;;;;;;;;;;6082236;23;20494;-65
2023/10/11 14:41:24;;;;;;;31.65;5.30;;;;;;;;;;6081730;23;20436;-65
2023/10/11 14:44:13;;;;;;;37.38;5.95;;;;;;;;;;6080787;23;20037;-65
2023/10/11 14:47:05;;;;;;;24.92;4.30;;;;;;;;;;6082786;23;20405;-65
2023/10/11 14:49:52;;;;;;;35.38;4.70;;;;;;;;;;6084147;23;20093;-65
2023/10/11 14:52:54;;;;;;;30.40;5.55;;;;;;;;;;6084288;23;20032;-64
2023/10/11 14:55:54;;;;;;;31.20;5.38;;;;;;;;;;6081927;23;20361;-65
2023/10/11 14:58:50;;;;;;;36.72;5.50;;;;;;;;;;6081424;23;20077;-60
2023/10/11 15:01:37;;;;;;;30.52;4.40;;;;;;;;;;6082995;23;20105;-60
2023/10/11 15:04:33;;;;;;;30.50;4.25;;;;;;;;;;6084073;23;20028;-61
2023/10/11 15:07:18;;;;;;;28.27;4.60;;;;;;;;;;6082725;23;20034;-60
2023/10/11 15:10:13;;;;;;;22.35;4.28;;;;;;;;;;6082069;23;20034;-60
2023/10/11 15:13:01;;;;;;;29.33;4.83;;;;;;;;;;6083082;23;20441;-52
2023/10/11 15:15:54;;;;;;;27.60;4.78;;;;;;;;;;6079747;23;20360;-64
2023/10/11 15:18:42;;;;;;;29.10;5.30;;;;;;;;;;6082103;23;20750;-64
2023/10/11 15:21:39;;;;;;;26.55;4.28;;;;;;;;;;6083974;23;20022;-61
2023/10/11 15:24:26;;;;;;;34.45;5.95;;;;;;;;;;6081130;23;20543;-64
2023/10/11 15:27:20;;;;;;;24.50;4.40;;;;;;;;;;6081631;23;20404;-64
2023/10/11 15:30:07;;;;;;;24.90;4.50;;;;;;;;;;6081306;23;20468;-64
2023/10/11 15:33:01;;;;;;;35.53;5.40;;;;;;;;;;6082923;23;20125;-61
2023/10/11 15:35:52;;;;;;;27.52;4.03;;;;;;;;;;6082137;23;20049;-63
2023/10/11 15:38:46;;;;;;;23.13;3.92;;;;;;;;;;6081506;23;20033;-61
2023/10/11 15:41:33;;;;;;;24.27;3.70;;;;;;;;;;6081073;23;20026;-62
2023/10/11 15:44:27;;;;;;;25.02;4.18;;;;;;;;;;6081745;23;20088;-62
2023/10/11 15:47:21;;;;;;;28.80;4.60;;;;;;;;;;6083458;23;20022;-62
2023/10/11 15:50:12;;;;;;;28.92;4.38;;;;;;;;;;6084533;23;20033;-60
2023/10/11 15:53:02;;;;;;;19.42;3.65;;;;;;;;;;6081273;23;20065;-47
2023/10/11 15:55:55;;;;;;;29.60;4.25;;;;;;;;;;6079368;23;20031;-47
2023/10/11 15:58:50;;;;;;;18.10;4.18;;;;;;;;;;6078728;23;20101;-47
2023/10/11 16:01:39;;;;;;;25.88;3.30;;;;;;;;;;6081453;23;20595;-51
2023/10/11 16:04:33;;;;;;;23.52;3.65;;;;;;;;;;6083637;23;20023;-47
2023/10/11 16:07:20;;;;;;;27.45;4.40;;;;;;;;;;6083287;23;20097;-51
2023/10/11 16:10:15;;;;;;;26.98;4.32;;;;;;;;;;6083663;23;20026;-60
2023/10/11 16:13:02;;;;;;;29.48;4.30;;;;;;;;;;6079387;23;20086;-60
2023/10/11 16:15:59;;;;;;;29.98;5.07;;;;;;;;;;6080706;23;20022;-59
2023/10/11 16:18:47;;;;;;;26.98;4.18;;;;;;;;;;6079674;23;20056;-60
2023/10/11 16:21:42;;;;;;;20.33;3.22;;;;;;;;;;6080024;23;20121;-60
2023/10/11 16:24:28;;;;;;;13.50;3.60;;;;;;;;;;6082262;23;20093;-60
2023/10/11 16:27:22;;;;;;;26.38;3.70;;;;;;;;;;6082202;23;20097;-64
2023/10/11 16:30:11;;;;;;;16.05;3.22;;;;;;;;;;6081844;23;20022;-53
2023/10/11 16:33:05;;;;;;;18.80;3.67;;;;;;;;;;6082158;23;20030;-50
2023/10/11 16:35:51;;;;;;;23.85;4.00;;;;;;;;;;6080567;23;20093;-45
2023/10/11 16:38:46;;;;;;;23.90;3.78;;;;;;;;;;6080341;23;20064;-46
2023/10/11 16:41:51;;;;;;;20.52;3.38;;;;;;;;;;6082463;23;20030;-47
2023/10/11 16:44:46;;;;;;;17.88;3.50;;;;;;;;;;6056995;23;20616;-61
2023/10/11 16:47:38;;;;;;;27.00;3.92;;;;;;;;;;6082663;23;20023;-60
2023/10/11 16:50:36;;;;;;;29.42;3.92;;;;;;;;;;6082866;23;20689;-60
2023/10/11 16:53:25;;;;;;;23.63;4.18;;;;;;;;;;6081676;23;20086;-60
2023/10/11 16:56:24;;;;;;;18.13;3.40;;;;;;;;;;6079997;23;20030;-59
2023/10/11 16:59:14;;;;;;;28.98;4.93;;;;;;;;;;6078025;23;20097;-60
2023/10/11 17:02:07;;;;;;;32.33;3.72;;;;;;;;;;6079712;23;20031;-59
2023/10/11 17:04:54;;;;;;;32.15;4.25;;;;;;;;;;6079031;23;20035;-49
2023/10/11 17:07:48;;;;;;;27.42;3.95;;;;;;;;;;6076907;23;20026;-59
2023/10/11 17:10:35;;;;;;;16.58;3.00;;;;;;;;;;6081148;23;20396;-59
2023/10/11 17:13:29;;;;;;;23.25;3.65;;;;;;;;;;6080794;23;20090;-59
2023/10/11 17:16:23;;;;;;;25.05;3.97;;;;;;;;;;6081086;23;20030;-59
2023/10/11 17:19:11;;;;;;;25.15;4.13;;;;;;;;;;6080315;23;20026;-60
2023/10/11 17:22:04;;;;;;;30.98;4.43;;;;;;;;;;6079644;23;20026;-62
2023/10/11 17:24:59;;;;;;;24.17;4.43;;;;;;;;;;6080891;23;20492;-62
2023/10/11 17:27:46;;;;;;;25.10;3.67;;;;;;;;;;6080738;23;20033;-62